Time,TemperatureF,DewpointF,PressureIn,WindDirection,WindDirectionDegrees,WindSpeedMPH,WindSpeedGustMPH,Humidity,HourlyPrecipIn,Conditions,Clouds,dailyrainin,SoftwareType,DateUTC
2013-02-13 00:01:00,21.0,-1.0,30.16,North,0,0.0,0.0,38,0.00,,,0.00,,2013-02-13 07:01:00,
2013-02-13 00:11:00,21.0,0.0,30.17,North,0,0.0,0.0,39,0.00,,,0.00,,2013-02-13 07:11:00,
2013-02-13 00:21:00,21.0,0.0,30.17,North,0,0.0,0.0,39,0.00,,,0.00,,2013-02-13 07:21:00,
2013-02-13 00:31:00,20.0,0.0,30.19,North,0,0.0,0.0,41,0.00,,,0.00,,2013-02-13 07:31:00,
2013-02-13 00:41:00,20.0,0.0,30.19,North,0,0.0,0.0,41,0.00,,,0.00,,2013-02-13 07:41:00,
2013-02-13 00:52:00,20.0,0.0,30.19,North,0,0.0,0.0,41,0.00,,,0.00,,2013-02-13 07:52:00,
2013-02-13 01:01:00,21.0,-1.0,30.18,North,0,0.0,0.0,38,0.00,,,0.00,,2013-02-13 08:01:00,
2013-02-13 01:11:00,22.0,1.0,30.17,North,0,0.0,0.0,40,0.00,,,0.00,,2013-02-13 08:11:00,
2013-02-13 01:21:00,22.0,1.0,30.17,North,0,0.0,0.0,40,0.00,,,0.00,,2013-02-13 08:21:00,
2013-02-13 01:31:00,22.0,4.0,30.18,North,0,0.0,0.0,45,0.00,,,0.00,,2013-02-13 08:31:00,
2013-02-13 01:42:00,22.0,4.0,30.18,North,0,0.0,0.0,45,0.00,,,0.00,,2013-02-13 08:42:00,
2013-02-13 01:52:00,22.0,6.0,30.16,North,0,0.0,0.0,49,0.00,,,0.00,,2013-02-13 08:52:00,
2013-02-13 02:01:00,22.0,6.0,30.19,North,0,0.0,0.0,50,0.00,,,0.00,,2013-02-13 09:01:00,
2013-02-13 02:11:00,22.0,8.0,30.18,North,0,0.0,0.0,53,0.00,,,0.00,,2013-02-13 09:11:00,
2013-02-13 02:21:00,22.0,8.0,30.18,North,0,0.0,0.0,53,0.00,,,0.00,,2013-02-13 09:21:00,
2013-02-13 02:31:00,23.0,8.0,30.17,North,0,0.0,0.0,53,0.00,,,0.00,,2013-02-13 09:31:00,
2013-02-13 02:41:00,23.0,9.0,30.18,North,0,0.0,0.0,54,0.00,,,0.00,,2013-02-13 09:41:00,
2013-02-13 02:52:00,23.0,9.0,30.18,North,0,0.0,0.0,54,0.00,,,0.00,,2013-02-13 09:52:00,
2013-02-13 03:01:00,22.0,8.0,30.17,North,0,0.0,0.0,55,0.00,,,0.00,,2013-02-13 10:01:00,
2013-02-13 03:11:00,22.0,10.0,30.16,North,0,0.0,0.0,58,0.00,,,0.00,,2013-02-13 10:11:00,
2013-02-13 03:21:00,22.0,10.0,30.16,North,0,0.0,0.0,58,0.00,,,0.00,,2013-02-13 10:21:00,
2013-02-13 03:31:00,22.0,10.0,30.16,North,0,0.0,0.0,60,0.00,,,0.00,,2013-02-13 10:31:00,
2013-02-13 03:41:00,23.0,10.0,30.16,North,0,0.0,0.0,57,0.00,,,0.00,,2013-02-13 10:41:00,
2013-02-13 03:51:00,23.0,10.0,30.16,North,0,0.0,0.0,57,0.00,,,0.00,,2013-02-13 10:51:00,
2013-02-13 04:01:00,23.0,10.0,30.17,North,0,0.0,0.0,56,0.00,,,0.00,,2013-02-13 11:01:00,
2013-02-13 04:11:00,23.0,9.0,30.16,North,0,0.0,0.0,55,0.00,,,0.00,,2013-02-13 11:11:00,
2013-02-13 04:22:00,23.0,9.0,30.16,North,0,0.0,0.0,55,0.00,,,0.00,,2013-02-13 11:22:00,
2013-02-13 04:31:00,23.0,9.0,30.15,North,0,0.0,0.0,54,0.00,,,0.00,,2013-02-13 11:31:00,
2013-02-13 04:41:00,24.0,9.0,30.15,North,0,0.0,0.0,52,0.00,,,0.00,,2013-02-13 11:41:00,
2013-02-13 04:52:00,24.0,9.0,30.15,North,0,0.0,0.0,52,0.00,,,0.00,,2013-02-13 11:52:00,
2013-02-13 05:02:00,23.0,8.0,30.16,North,0,0.0,0.0,53,0.00,,,0.00,,2013-02-13 12:02:00,
2013-02-13 05:11:00,23.0,9.0,30.15,North,0,0.0,0.0,54,0.00,,,0.00,,2013-02-13 12:11:00,
2013-02-13 05:21:00,23.0,9.0,30.15,North,0,0.0,0.0,54,0.00,,,0.00,,2013-02-13 12:21:00,
2013-02-13 05:31:00,23.0,9.0,30.17,North,0,0.0,0.0,55,0.00,,,0.00,,2013-02-13 12:31:00,
2013-02-13 05:42:00,23.0,9.0,30.16,North,0,0.0,0.0,55,0.00,,,0.00,,2013-02-13 12:42:00,
2013-02-13 05:52:00,23.0,9.0,30.16,North,0,0.0,0.0,55,0.00,,,0.00,,2013-02-13 12:52:00,
2013-02-13 06:02:00,23.0,9.0,30.15,North,0,0.0,0.0,54,0.00,,,0.00,,2013-02-13 13:02:00,
2013-02-13 06:11:00,23.0,9.0,30.17,North,0,0.0,0.0,55,0.00,,,0.00,,2013-02-13 13:11:00,
2013-02-13 06:21:00,23.0,9.0,30.17,North,0,0.0,0.0,55,0.00,,,0.00,,2013-02-13 13:21:00,
2013-02-13 06:31:00,23.0,9.0,30.17,North,0,0.0,0.0,55,0.00,,,0.00,,2013-02-13 13:31:00,
2013-02-13 06:41:00,23.0,10.0,30.16,North,0,0.0,0.0,56,0.00,,,0.00,,2013-02-13 13:41:00,
2013-02-13 06:52:00,23.0,10.0,30.16,North,0,0.0,0.0,56,0.00,,,0.00,,2013-02-13 13:52:00,
2013-02-13 07:01:00,23.0,10.0,30.16,North,0,0.0,0.0,56,0.00,,,0.00,,2013-02-13 14:01:00,
2013-02-13 07:11:00,23.0,10.0,30.16,North,0,0.0,0.0,56,0.00,,,0.00,,2013-02-13 14:11:00,
2013-02-13 07:21:00,23.0,10.0,30.16,North,0,0.0,0.0,56,0.00,,,0.00,,2013-02-13 14:21:00,
2013-02-13 07:31:00,23.0,10.0,30.16,North,0,0.0,0.0,57,0.00,,,0.00,,2013-02-13 14:31:00,
2013-02-13 07:41:00,23.0,8.0,30.18,North,0,0.0,0.0,52,0.00,,,0.00,,2013-02-13 14:41:00,
2013-02-13 07:52:00,23.0,8.0,30.18,North,0,0.0,0.0,52,0.00,,,0.00,,2013-02-13 14:52:00,
2013-02-13 08:01:00,24.0,6.0,30.17,North,0,0.0,0.0,46,0.00,,,0.00,,2013-02-13 15:01:00,
2013-02-13 08:11:00,25.0,7.0,30.19,North,0,0.0,0.0,46,0.00,,,0.00,,2013-02-13 15:11:00,
2013-02-13 08:21:00,25.0,7.0,30.19,North,0,0.0,0.0,46,0.00,,,0.00,,2013-02-13 15:21:00,
2013-02-13 08:31:00,25.0,6.0,30.19,North,0,0.0,0.0,44,0.00,,,0.00,,2013-02-13 15:31:00,
2013-02-13 08:41:00,25.0,6.0,30.19,North,0,0.0,0.0,44,0.00,,,0.00,,2013-02-13 15:41:00,
2013-02-13 08:52:00,25.0,5.0,30.17,North,0,0.0,0.0,42,0.00,,,0.00,,2013-02-13 15:52:00,
2013-02-13 09:01:00,24.0,5.0,30.19,North,0,0.0,0.0,44,0.00,,,0.00,,2013-02-13 16:01:00,
2013-02-13 09:11:00,24.0,6.0,30.19,North,0,0.0,0.0,46,0.00,,,0.00,,2013-02-13 16:11:00,
2013-02-13 09:31:00,25.0,6.0,30.19,North,0,0.0,0.0,44,0.00,,,0.00,,2013-02-13 16:31:00,
2013-02-13 09:41:00,25.0,6.0,30.19,North,0,0.0,0.0,44,0.00,,,0.00,,2013-02-13 16:41:00,
2013-02-13 09:51:00,25.0,8.0,30.20,North,0,0.0,0.0,48,0.00,,,0.00,,2013-02-13 16:51:00,
2013-02-13 10:01:00,25.0,8.0,30.19,North,0,0.0,0.0,48,0.00,,,0.00,,2013-02-13 17:01:00,
2013-02-13 10:11:00,25.0,9.0,30.20,North,0,0.0,0.0,49,0.00,,,0.00,,2013-02-13 17:11:00,
2013-02-13 10:21:00,25.0,9.0,30.20,North,0,0.0,0.0,49,0.00,,,0.00,,2013-02-13 17:21:00,
2013-02-13 10:31:00,25.0,8.0,30.20,North,0,0.0,0.0,48,0.00,,,0.00,,2013-02-13 17:31:00,
2013-02-13 10:41:00,25.0,8.0,30.20,North,0,0.0,0.0,48,0.00,,,0.00,,2013-02-13 17:41:00,
2013-02-13 10:52:00,25.0,8.0,30.21,North,0,0.0,0.0,48,0.00,,,0.00,,2013-02-13 17:52:00,
2013-02-13 11:01:00,26.0,7.0,30.22,North,0,0.0,0.0,44,0.00,,,0.00,,2013-02-13 18:01:00,
2013-02-13 11:11:00,27.0,7.0,30.24,North,0,0.0,0.0,42,0.00,,,0.00,,2013-02-13 18:11:00,
2013-02-13 11:22:00,27.0,7.0,30.24,North,0,0.0,0.0,42,0.00,,,0.00,,2013-02-13 18:22:00,
2013-02-13 11:31:00,28.0,7.0,30.24,North,0,0.0,0.0,40,0.00,,,0.00,,2013-02-13 18:31:00,
2013-02-13 11:41:00,28.0,7.0,30.24,North,0,0.0,0.0,40,0.00,,,0.00,,2013-02-13 18:41:00,
2013-02-13 11:52:00,28.0,5.0,30.24,North,0,0.0,0.0,37,0.00,,,0.00,,2013-02-13 18:52:00,
2013-02-13 12:01:00,29.0,7.0,30.24,North,0,0.0,0.0,39,0.00,,,0.00,,2013-02-13 19:01:00,
2013-02-13 12:11:00,29.0,7.0,30.24,North,0,0.0,0.0,39,0.00,,,0.00,,2013-02-13 19:11:00,
2013-02-13 12:21:00,29.0,7.0,30.24,North,0,0.0,0.0,39,0.00,,,0.00,,2013-02-13 19:21:00,
2013-02-13 12:31:00,28.0,7.0,30.25,North,0,0.0,0.0,41,0.00,,,0.00,,2013-02-13 19:31:00,
2013-02-13 12:41:00,28.0,7.0,30.25,North,0,0.0,0.0,41,0.00,,,0.00,,2013-02-13 19:41:00,
2013-02-13 12:52:00,29.0,5.0,30.24,North,0,0.0,0.0,35,0.00,,,0.00,,2013-02-13 19:52:00,
2013-02-13 13:01:00,30.0,4.0,30.24,North,0,0.0,0.0,33,0.00,,,0.00,,2013-02-13 20:01:00,
2013-02-13 13:11:00,30.0,-2.0,30.24,North,0,0.0,0.0,24,0.00,,,0.00,,2013-02-13 20:11:00,
2013-02-13 13:21:00,30.0,-2.0,30.24,North,0,0.0,0.0,24,0.00,,,0.00,,2013-02-13 20:21:00,
2013-02-13 13:31:00,31.0,3.0,30.23,North,0,0.0,0.0,29,0.00,,,0.00,,2013-02-13 20:31:00,
2013-02-13 13:41:00,31.0,12.0,30.22,North,0,0.0,0.0,45,0.00,,,0.00,,2013-02-13 20:41:00,
2013-02-13 13:51:00,31.0,12.0,30.22,North,0,0.0,0.0,45,0.00,,,0.00,,2013-02-13 20:51:00,
2013-02-13 14:01:00,29.0,15.0,30.24,North,0,0.0,0.0,56,0.00,,,0.00,,2013-02-13 21:01:00,
2013-02-13 14:11:00,29.0,15.0,30.24,North,0,0.0,0.0,56,0.00,,,0.00,,2013-02-13 21:11:00,
2013-02-13 14:21:00,30.0,7.0,30.23,North,0,0.0,0.0,37,0.00,,,0.00,,2013-02-13 21:21:00,
2013-02-13 14:31:00,31.0,17.0,30.23,North,0,0.0,0.0,55,0.00,,,0.00,,2013-02-13 21:31:00,
2013-02-13 14:42:00,30.0,17.0,30.23,North,0,0.0,0.0,57,0.00,,,0.00,,2013-02-13 21:42:00,
2013-02-13 14:52:00,30.0,17.0,30.23,North,0,0.0,0.0,57,0.00,,,0.00,,2013-02-13 21:52:00,
2013-02-13 15:01:00,29.0,16.0,30.23,North,0,0.0,0.0,59,0.00,,,0.00,,2013-02-13 22:01:00,
2013-02-13 15:11:00,30.0,17.0,30.23,North,0,0.0,0.0,57,0.00,,,0.00,,2013-02-13 22:11:00,
2013-02-13 15:21:00,30.0,17.0,30.23,North,0,0.0,0.0,57,0.00,,,0.00,,2013-02-13 22:21:00,
2013-02-13 15:31:00,30.0,17.0,30.24,North,0,0.0,0.0,57,0.00,,,0.00,,2013-02-13 22:31:00,
2013-02-13 15:42:00,30.0,17.0,30.24,North,0,0.0,0.0,57,0.00,,,0.00,,2013-02-13 22:42:00,
2013-02-13 15:51:00,30.0,17.0,30.24,North,0,0.0,0.0,59,0.00,,,0.00,,2013-02-13 22:51:00,
2013-02-13 16:01:00,30.0,17.0,30.24,North,0,0.0,0.0,58,0.00,,,0.00,,2013-02-13 23:01:00,
2013-02-13 16:11:00,30.0,17.0,30.24,North,0,0.0,0.0,59,0.00,,,0.00,,2013-02-13 23:11:00,
2013-02-13 16:21:00,30.0,17.0,30.24,North,0,0.0,0.0,59,0.00,,,0.00,,2013-02-13 23:21:00,
2013-02-13 16:31:00,30.0,17.0,30.24,North,0,0.0,0.0,59,0.00,,,0.00,,2013-02-13 23:31:00,
2013-02-13 16:41:00,30.0,17.0,30.24,North,0,0.0,0.0,59,0.00,,,0.00,,2013-02-13 23:41:00,
2013-02-13 16:52:00,30.0,17.0,30.24,North,0,0.0,0.0,58,0.00,,,0.00,,2013-02-13 23:52:00,
2013-02-13 17:01:00,28.0,16.0,30.23,North,0,0.0,0.0,61,0.00,,,0.00,,2013-02-14 00:01:00,
2013-02-13 17:11:00,28.0,16.0,30.23,North,0,0.0,0.0,61,0.00,,,0.00,,2013-02-14 00:11:00,
2013-02-13 17:21:00,29.0,14.0,30.25,North,0,0.0,0.0,53,0.00,,,0.00,,2013-02-14 00:21:00,
2013-02-13 17:31:00,32.0,-3.0,30.25,North,0,0.0,0.0,21,0.00,,,0.00,,2013-02-14 00:31:00,
2013-02-13 17:41:00,32.0,-3.0,30.25,North,0,0.0,0.0,21,0.00,,,0.00,,2013-02-14 00:41:00,
2013-02-13 17:52:00,32.0,4.0,30.25,North,0,0.0,0.0,30,0.00,,,0.00,,2013-02-14 00:52:00,
2013-02-13 18:01:00,32.0,-13.0,30.25,North,0,0.0,0.0,13,0.00,,,0.00,,2013-02-14 01:01:00,
2013-02-13 18:11:00,31.0,-5.0,30.24,North,0,0.0,0.0,20,0.00,,,0.00,,2013-02-14 01:11:00,
2013-02-13 18:21:00,31.0,-5.0,30.24,North,0,0.0,0.0,20,0.00,,,0.00,,2013-02-14 01:21:00,
2013-02-13 18:31:00,29.0,-10.0,30.26,North,0,0.0,0.0,17,0.00,,,0.00,,2013-02-14 01:31:00,
2013-02-13 18:41:00,29.0,-10.0,30.26,North,0,0.0,0.0,17,0.00,,,0.00,,2013-02-14 01:41:00,
2013-02-13 18:51:00,28.0,-21.0,30.25,North,0,0.0,0.0,10,0.00,,,0.00,,2013-02-14 01:51:00,
2013-02-13 19:01:00,29.0,-21.0,30.26,North,0,0.0,0.0,10,0.00,,,0.00,,2013-02-14 02:01:00,
2013-02-13 19:11:00,28.0,-21.0,30.25,North,0,0.0,0.0,10,0.00,,,0.00,,2013-02-14 02:11:00,
2013-02-13 19:21:00,28.0,-21.0,30.25,North,0,0.0,0.0,10,0.00,,,0.00,,2013-02-14 02:21:00,
2013-02-13 19:31:00,27.0,-19.0,30.25,North,0,0.0,0.0,12,0.00,,,0.00,,2013-02-14 02:31:00,
2013-02-13 19:41:00,27.0,-19.0,30.25,North,0,0.0,0.0,12,0.00,,,0.00,,2013-02-14 02:41:00,
2013-02-13 19:51:00,27.0,-19.0,30.25,North,0,0.0,0.0,12,0.00,,,0.00,,2013-02-14 02:51:00,
2013-02-13 20:02:00,28.0,-21.0,30.26,North,0,0.0,0.0,10,0.00,,,0.00,,2013-02-14 03:02:00,
2013-02-13 20:11:00,27.0,-20.0,30.26,North,0,0.0,0.0,11,0.00,,,0.00,,2013-02-14 03:11:00,
2013-02-13 20:21:00,27.0,-20.0,30.26,North,0,0.0,0.0,11,0.00,,,0.00,,2013-02-14 03:21:00,
2013-02-13 20:31:00,28.0,-21.0,30.26,North,0,0.0,0.0,10,0.00,,,0.00,,2013-02-14 03:31:00,
2013-02-13 20:42:00,28.0,-21.0,30.26,North,0,0.0,0.0,10,0.00,,,0.00,,2013-02-14 03:42:00,
2013-02-13 20:52:00,28.0,-21.0,30.26,North,0,0.0,0.0,10,0.00,,,0.00,,2013-02-14 03:52:00,
2013-02-13 21:01:00,28.0,-23.0,30.26,North,0,0.0,0.0,9,0.00,,,0.00,,2013-02-14 04:01:00,
2013-02-13 21:11:00,28.0,-23.0,30.27,North,0,0.0,0.0,9,0.00,,,0.00,,2013-02-14 04:11:00,
2013-02-13 21:21:00,28.0,-23.0,30.27,North,0,0.0,0.0,9,0.00,,,0.00,,2013-02-14 04:21:00,
2013-02-13 21:31:00,28.0,-26.0,30.26,North,0,0.0,0.0,8,0.00,,,0.00,,2013-02-14 04:31:00,
2013-02-13 21:41:00,28.0,-26.0,30.26,North,0,0.0,0.0,8,0.00,,,0.00,,2013-02-14 04:41:00,
2013-02-13 21:51:00,29.0,-27.0,30.26,North,0,0.0,0.0,7,0.00,,,0.00,,2013-02-14 04:51:00,
2013-02-13 22:01:00,29.0,-27.0,30.27,North,0,0.0,0.0,7,0.00,,,0.00,,2013-02-14 05:01:00,
2013-02-13 22:21:00,29.0,-27.0,30.27,North,0,0.0,0.0,7,0.00,,,0.00,,2013-02-14 05:21:00,
2013-02-13 22:31:00,29.0,-27.0,30.27,North,0,0.0,0.0,7,0.00,,,0.00,,2013-02-14 05:31:00,
2013-02-13 22:41:00,29.0,-27.0,30.27,North,0,0.0,0.0,7,0.00,,,0.00,,2013-02-14 05:41:00,
2013-02-13 22:52:00,29.0,-27.0,30.27,North,0,0.0,0.0,7,0.00,,,0.00,,2013-02-14 05:52:00,
2013-02-13 23:01:00,29.0,-27.0,30.27,North,0,0.0,0.0,7,0.00,,,0.00,,2013-02-14 06:01:00,
2013-02-13 23:11:00,29.0,-25.0,30.27,North,0,0.0,0.0,8,0.00,,,0.00,,2013-02-14 06:11:00,
2013-02-13 23:21:00,29.0,-25.0,30.27,North,0,0.0,0.0,8,0.00,,,0.00,,2013-02-14 06:21:00,
2013-02-13 23:31:00,29.0,-27.0,30.26,North,0,0.0,0.0,7,0.00,,,0.00,,2013-02-14 06:31:00,
2013-02-13 23:41:00,29.0,-27.0,30.26,North,0,0.0,0.0,7,0.00,,,0.00,,2013-02-14 06:41:00,
2013-02-13 23:51:00,29.0,-30.0,30.27,North,0,0.0,0.0,6,0.00,,,0.00,,2013-02-14 06:51:00,